Time;durP1;ratioP1;P1;durP2;ratioP2;P2;SDS_P1;SDS_P2;PMS_P1;PMS_P2;Temp;Humidity;BMP_temperature;BMP_pressure;BME280_temperature;BME280_humidity;BME280_pressure;Samples;Min_cycle;Max_cycle;Signal;HPM_P1;HPM_P2
2023/06/02 00:01:02;;;;;;;10.90;2.90;;;;;;;;;;4975789;28;20030;-78
2023/06/02 00:03:33;;;;;;;7.90;3.20;;;;;;;;;;4976929;28;20430;-78
2023/06/02 00:06:01;;;;;;;10.52;2.65;;;;;;;;;;4992659;28;20045;-78
2023/06/02 00:08:28;;;;;;;7.10;2.95;;;;;;;;;;4992146;28;20033;-78
2023/06/02 00:10:53;;;;;;;9.98;3.00;;;;;;;;;;4993909;28;20529;-77
2023/06/02 00:13:19;;;;;;;11.00;3.28;;;;;;;;;;4975422;28;20026;-76
2023/06/02 00:15:45;;;;;;;14.77;3.55;;;;;;;;;;4976437;28;20032;-79
2023/06/02 00:18:11;;;;;;;29.75;3.92;;;;;;;;;;4975992;28;20018;-79
2023/06/02 00:20:37;;;;;;;10.77;3.13;;;;;;;;;;4992516;28;20081;-79
2023/06/02 00:23:03;;;;;;;8.75;2.92;;;;;;;;;;4991451;28;20026;-77
2023/06/02 00:25:32;;;;;;;9.18;3.28;;;;;;;;;;4993162;28;20516;-76
2023/06/02 00:27:57;;;;;;;8.13;3.00;;;;;;;;;;4992899;28;20081;-76
2023/06/02 00:30:23;;;;;;;13.05;4.10;;;;;;;;;;4975659;28;20488;-78
2023/06/02 00:32:48;;;;;;;8.50;2.80;;;;;;;;;;4975674;28;20031;-78
2023/06/02 00:35:14;;;;;;;13.32;3.38;;;;;;;;;;4975115;28;20049;-77
2023/06/02 00:37:40;;;;;;;9.00;2.83;;;;;;;;;;4992321;28;20026;-77
2023/06/02 00:40:06;;;;;;;9.48;3.20;;;;;;;;;;4973584;28;20030;-78
2023/06/02 00:42:32;;;;;;;7.70;3.00;;;;;;;;;;4974922;28;20491;-79
2023/06/02 00:44:58;;;;;;;10.85;2.67;;;;;;;;;;4974716;28;20034;-78
2023/06/02 00:47:23;;;;;;;9.80;2.50;;;;;;;;;;4975023;28;20042;-77
2023/06/02 00:49:49;;;;;;;12.10;3.08;;;;;;;;;;4991008;28;20109;-78
2023/06/02 00:52:15;;;;;;;8.80;2.30;;;;;;;;;;4992097;28;20027;-77
2023/06/02 00:54:41;;;;;;;10.80;2.90;;;;;;;;;;4992133;28;20031;-77
2023/06/02 00:57:07;;;;;;;13.02;3.25;;;;;;;;;;4957469;28;20031;-77
2023/06/02 00:59:33;;;;;;;8.88;2.50;;;;;;;;;;4974727;28;20039;-78
2023/06/02 01:01:59;;;;;;;9.35;3.08;;;;;;;;;;4992175;28;20470;-77
2023/06/02 01:04:25;;;;;;;10.80;2.75;;;;;;;;;;4974525;28;20390;-77
2023/06/02 01:06:50;;;;;;;9.32;2.60;;;;;;;;;;4974941;28;20113;-77
2023/06/02 01:09:17;;;;;;;10.55;2.92;;;;;;;;;;4992016;28;20105;-77
2023/06/02 01:11:48;;;;;;;10.60;2.88;;;;;;;;;;4974718;28;20114;-78
2023/06/02 01:14:15;;;;;;;10.13;2.67;;;;;;;;;;4991017;28;20077;-78
2023/06/02 01:16:44;;;;;;;11.52;3.35;;;;;;;;;;4955870;28;20069;-79
2023/06/02 01:19:14;;;;;;;11.88;2.92;;;;;;;;;;4959524;28;20119;-77
2023/06/02 01:21:42;;;;;;;8.52;2.65;;;;;;;;;;4976666;28;20046;-78
2023/06/02 01:24:07;;;;;;;12.88;2.55;;;;;;;;;;4942996;28;20089;-77
2023/06/02 01:26:35;;;;;;;11.00;2.70;;;;;;;;;;4975215;28;20491;-76
2023/06/02 01:29:01;;;;;;;8.35;2.50;;;;;;;;;;4976914;28;20027;-77
2023/06/02 01:31:29;;;;;;;10.20;2.67;;;;;;;;;;4962479;28;20022;-78
2023/06/02 01:33:55;;;;;;;13.88;2.60;;;;;;;;;;4992519;28;20040;-78
2023/06/02 01:36:22;;;;;;;18.10;3.10;;;;;;;;;;4993214;28;20491;-77
2023/06/02 01:38:48;;;;;;;10.25;2.80;;;;;;;;;;4990145;28;20038;-79
2023/06/02 01:41:15;;;;;;;13.45;3.05;;;;;;;;;;4971888;28;20574;-79
2023/06/02 01:43:41;;;;;;;8.98;2.75;;;;;;;;;;5001282;28;20068;-77
2023/06/02 01:46:07;;;;;;;6.93;2.60;;;;;;;;;;5003320;28;20034;-78
2023/06/02 01:48:33;;;;;;;10.13;2.80;;;;;;;;;;4994331;28;20038;-76
2023/06/02 01:50:58;;;;;;;11.23;3.00;;;;;;;;;;4995244;28;20033;-78
2023/06/02 01:53:26;;;;;;;8.95;2.88;;;;;;;;;;4995275;28;20158;-77
2023/06/02 01:55:52;;;;;;;11.00;3.05;;;;;;;;;;4977906;28;20034;-77
2023/06/02 01:58:18;;;;;;;10.00;2.45;;;;;;;;;;4978126;28;20061;-77
2023/06/02 02:00:43;;;;;;;11.20;3.13;;;;;;;;;;4977573;28;20068;-76
2023/06/02 02:03:09;;;;;;;11.40;2.83;;;;;;;;;;4995205;28;20547;-76
2023/06/02 02:05:35;;;;;;;11.32;2.53;;;;;;;;;;4993817;28;20506;-77
2023/06/02 02:08:00;;;;;;;10.70;2.50;;;;;;;;;;4995131;28;20476;-77
2023/06/02 02:10:26;;;;;;;11.40;2.88;;;;;;;;;;4977758;28;20061;-77
2023/06/02 02:12:51;;;;;;;11.73;2.67;;;;;;;;;;4977595;28;20376;-77
2023/06/02 02:15:17;;;;;;;7.63;2.42;;;;;;;;;;4994800;28;20084;-77
2023/06/02 02:17:47;;;;;;;9.02;2.72;;;;;;;;;;4961569;28;20558;-77
2023/06/02 02:20:12;;;;;;;13.45;2.53;;;;;;;;;;4977475;28;20026;-77
2023/06/02 02:22:38;;;;;;;10.68;2.60;;;;;;;;;;4959685;28;20085;-77
2023/06/02 02:25:03;;;;;;;14.90;2.92;;;;;;;;;;4976509;28;20096;-76
2023/06/02 02:27:29;;;;;;;11.73;3.15;;;;;;;;;;4977209;28;20097;-77
2023/06/02 02:29:57;;;;;;;8.98;2.30;;;;;;;;;;4961383;28;20034;-78
2023/06/02 02:32:23;;;;;;;8.93;2.58;;;;;;;;;;4960851;28;20403;-77
2023/06/02 02:34:48;;;;;;;12.48;3.28;;;;;;;;;;4994778;28;20037;-77
2023/06/02 02:37:16;;;;;;;11.48;2.65;;;;;;;;;;4961138;28;20046;-78
2023/06/02 02:39:42;;;;;;;15.82;3.20;;;;;;;;;;4977091;28;20098;-77
2023/06/02 02:42:08;;;;;;;14.95;2.67;;;;;;;;;;4963190;28;20038;-77
2023/06/02 02:44:34;;;;;;;14.30;3.40;;;;;;;;;;4976985;28;20039;-77
2023/06/02 02:46:59;;;;;;;10.13;2.72;;;;;;;;;;4961152;28;20037;-77
2023/06/02 02:49:25;;;;;;;12.25;2.65;;;;;;;;;;4982662;28;20096;-77
2023/06/02 02:51:51;;;;;;;12.27;2.55;;;;;;;;;;4993303;28;20030;-77
2023/06/02 02:54:16;;;;;;;10.48;2.97;;;;;;;;;;4977106;28;20038;-76
2023/06/02 02:56:43;;;;;;;10.40;2.97;;;;;;;;;;5000695;28;20073;-75
2023/06/02 02:59:09;;;;;;;13.90;2.53;;;;;;;;;;4963756;28;20049;-77
2023/06/02 03:01:35;;;;;;;15.23;4.22;;;;;;;;;;4975732;28;20026;-76
2023/06/02 03:04:01;;;;;;;8.70;2.67;;;;;;;;;;4957554;28;20035;-76
2023/06/02 03:06:31;;;;;;;12.63;3.83;;;;;;;;;;4941761;28;20419;-77
2023/06/02 03:08:58;;;;;;;11.30;2.60;;;;;;;;;;4957525;28;20162;-77
2023/06/02 03:11:24;;;;;;;9.25;2.65;;;;;;;;;;4941382;28;20038;-76
2023/06/02 03:13:50;;;;;;;8.52;2.25;;;;;;;;;;4957614;28;20085;-77
2023/06/02 03:16:17;;;;;;;12.05;2.63;;;;;;;;;;4947960;28;20113;-75
2023/06/02 03:18:42;;;;;;;13.68;2.88;;;;;;;;;;4957949;28;20041;-76
2023/06/02 03:21:09;;;;;;;10.30;2.42;;;;;;;;;;4943190;28;20038;-77
2023/06/02 03:23:37;;;;;;;15.20;3.28;;;;;;;;;;4956701;28;20038;-78
2023/06/02 03:26:04;;;;;;;12.50;3.10;;;;;;;;;;4956721;28;20443;-76
2023/06/02 03:28:29;;;;;;;19.65;3.78;;;;;;;;;;4973947;28;20026;-77
2023/06/02 03:30:56;;;;;;;13.35;2.78;;;;;;;;;;4957117;28;20031;-77
2023/06/02 03:33:22;;;;;;;12.68;2.80;;;;;;;;;;4975738;28;20061;-77
2023/06/02 03:35:48;;;;;;;14.60;3.08;;;;;;;;;;4975991;28;20054;-76
2023/06/02 03:38:14;;;;;;;11.48;2.72;;;;;;;;;;4962782;28;20042;-76
2023/06/02 03:40:40;;;;;;;24.95;4.53;;;;;;;;;;4980420;28;20568;-76
2023/06/02 03:43:06;;;;;;;12.23;3.85;;;;;;;;;;4975955;28;20058;-77
2023/06/02 03:45:31;;;;;;;16.17;3.10;;;;;;;;;;4975756;28;20065;-77
2023/06/02 03:47:57;;;;;;;14.60;2.88;;;;;;;;;;4992890;28;20019;-78
2023/06/02 03:50:22;;;;;;;9.60;2.35;;;;;;;;;;4993217;28;20030;-79
2023/06/02 03:52:48;;;;;;;14.90;3.00;;;;;;;;;;4963612;28;20562;-77
2023/06/02 03:55:14;;;;;;;14.77;2.45;;;;;;;;;;4981362;28;20527;-77
2023/06/02 03:57:42;;;;;;;14.05;3.05;;;;;;;;;;4982633;28;20038;-77
2023/06/02 04:00:10;;;;;;;15.93;2.85;;;;;;;;;;4982104;28;20446;-77
2023/06/02 04:02:39;;;;;;;13.15;2.83;;;;;;;;;;4998765;28;20027;-77
2023/06/02 04:05:07;;;;;;;21.85;3.60;;;;;;;;;;4975768;28;20030;-76
2023/06/02 04:07:33;;;;;;;14.35;3.20;;;;;;;;;;4959555;28;20023;-77
2023/06/02 04:09:58;;;;;;;13.18;2.53;;;;;;;;;;4943611;28;20044;-77
2023/06/02 04:12:24;;;;;;;16.13;4.30;;;;;;;;;;4959520;28;20069;-75
2023/06/02 04:14:49;;;;;;;18.48;2.78;;;;;;;;;;4959434;28;20058;-76
2023/06/02 04:17:17;;;;;;;13.93;2.97;;;;;;;;;;4975244;28;20034;-76
2023/06/02 04:19:42;;;;;;;13.38;2.47;;;;;;;;;;4959144;28;20502;-77
2023/06/02 04:22:08;;;;;;;14.15;2.40;;;;;;;;;;4957859;28;20037;-77
2023/06/02 04:24:35;;;;;;;11.48;3.10;;;;;;;;;;4975597;28;20176;-77
2023/06/02 04:27:00;;;;;;;12.77;2.63;;;;;;;;;;4978897;28;20042;-77
2023/06/02 04:29:29;;;;;;;11.35;3.72;;;;;;;;;;4979034;28;20433;-77
2023/06/02 04:31:55;;;;;;;19.33;3.67;;;;;;;;;;4980824;28;20062;-77
2023/06/02 04:34:24;;;;;;;16.85;2.80;;;;;;;;;;4962331;28;20555;-77
2023/06/02 04:36:51;;;;;;;14.30;2.85;;;;;;;;;;4962259;28;20081;-77
2023/06/02 04:39:17;;;;;;;13.70;3.00;;;;;;;;;;4974212;28;20038;-77
2023/06/02 04:41:43;;;;;;;20.88;3.60;;;;;;;;;;4991984;28;20050;-77
2023/06/02 04:44:09;;;;;;;18.60;2.88;;;;;;;;;;4958414;28;20068;-77
2023/06/02 04:46:35;;;;;;;12.82;2.83;;;;;;;;;;4958894;28;20097;-77
2023/06/02 04:49:03;;;;;;;9.77;2.58;;;;;;;;;;4958583;28;20030;-76
2023/06/02 04:51:29;;;;;;;14.88;2.95;;;;;;;;;;4959044;28;20061;-77
2023/06/02 04:53:55;;;;;;;18.83;3.22;;;;;;;;;;4978627;28;20030;-78
2023/06/02 04:56:23;;;;;;;11.32;2.60;;;;;;;;;;4958135;28;20042;-78
2023/06/02 04:58:49;;;;;;;26.20;4.53;;;;;;;;;;4927768;28;20069;-77
2023/06/02 05:01:15;;;;;;;15.98;3.15;;;;;;;;;;4958971;28;20038;-77
2023/06/02 05:03:40;;;;;;;13.75;2.80;;;;;;;;;;4975000;28;20420;-78
2023/06/02 05:06:06;;;;;;;17.35;3.85;;;;;;;;;;4975433;28;20099;-78
2023/06/02 05:08:32;;;;;;;12.60;3.15;;;;;;;;;;4943516;28;20027;-77
2023/06/02 05:10:57;;;;;;;16.10;2.85;;;;;;;;;;4961219;28;20359;-78
2023/06/02 05:13:27;;;;;;;20.23;4.53;;;;;;;;;;4978431;28;20407;-78
2023/06/02 05:15:55;;;;;;;20.75;3.58;;;;;;;;;;4962359;28;20026;-77
2023/06/02 05:18:21;;;;;;;13.35;3.35;;;;;;;;;;4946877;28;20097;-77
2023/06/02 05:20:47;;;;;;;16.42;4.75;;;;;;;;;;4996619;28;20030;-77
2023/06/02 05:23:13;;;;;;;18.05;4.95;;;;;;;;;;4946749;28;20038;-78
2023/06/02 05:25:40;;;;;;;19.58;3.03;;;;;;;;;;4979491;28;20438;-77
2023/06/02 05:28:06;;;;;;;11.77;3.10;;;;;;;;;;4963551;28;20035;-77
2023/06/02 05:30:32;;;;;;;14.55;3.00;;;;;;;;;;4982712;28;20114;-78
2023/06/02 05:32:57;;;;;;;13.40;2.50;;;;;;;;;;4985519;28;20053;-77
2023/06/02 05:35:23;;;;;;;18.88;3.13;;;;;;;;;;4983734;28;20027;-79
2023/06/02 05:37:49;;;;;;;21.90;3.13;;;;;;;;;;4982580;28;20107;-77
2023/06/02 05:40:16;;;;;;;17.73;3.47;;;;;;;;;;4963930;28;20030;-78
2023/06/02 05:42:42;;;;;;;21.05;3.03;;;;;;;;;;4978517;28;20034;-77
2023/06/02 05:45:13;;;;;;;11.90;2.33;;;;;;;;;;4995452;28;20027;-77
2023/06/02 05:47:38;;;;;;;21.52;4.00;;;;;;;;;;4976192;28;20033;-77
2023/06/02 05:50:05;;;;;;;14.25;2.40;;;;;;;;;;4993712;28;20026;-78
2023/06/02 05:52:31;;;;;;;12.27;2.47;;;;;;;;;;4977304;28;20022;-77
2023/06/02 05:54:57;;;;;;;10.93;2.65;;;;;;;;;;4977518;28;20040;-78
2023/06/02 05:57:24;;;;;;;16.20;2.55;;;;;;;;;;4961459;28;20038;-76
2023/06/02 05:59:49;;;;;;;16.63;4.18;;;;;;;;;;4977710;28;20089;-77
2023/06/02 06:02:15;;;;;;;11.95;2.60;;;;;;;;;;4961621;28;20030;-79
2023/06/02 06:04:41;;;;;;;14.07;2.67;;;;;;;;;;4977274;28;20483;-77
2023/06/02 06:07:06;;;;;;;18.02;3.25;;;;;;;;;;4995237;28;20034;-78
2023/06/02 06:09:32;;;;;;;16.30;2.67;;;;;;;;;;4977949;28;20046;-78
2023/06/02 06:12:00;;;;;;;13.98;3.20;;;;;;;;;;4976907;28;20041;-77
2023/06/02 06:14:26;;;;;;;16.83;3.45;;;;;;;;;;4994997;28;20027;-77
2023/06/02 06:16:52;;;;;;;26.35;3.85;;;;;;;;;;4976917;28;20095;-77
2023/06/02 06:19:18;;;;;;;15.85;2.83;;;;;;;;;;4977364;28;20030;-78
2023/06/02 06:21:44;;;;;;;15.60;2.97;;;;;;;;;;4959677;28;20038;-78
2023/06/02 06:24:09;;;;;;;14.90;3.33;;;;;;;;;;4977385;28;20060;-77
2023/06/02 06:26:36;;;;;;;17.70;3.50;;;;;;;;;;4976911;28;20066;-78
2023/06/02 06:29:03;;;;;;;15.50;3.95;;;;;;;;;;4977131;28;20081;-78
2023/06/02 06:31:29;;;;;;;17.75;3.22;;;;;;;;;;4976784;28;20030;-78
2023/06/02 06:33:55;;;;;;;15.95;4.35;;;;;;;;;;4960821;28;20033;-78
2023/06/02 06:36:20;;;;;;;14.57;2.72;;;;;;;;;;4975860;28;20522;-77
2023/06/02 06:38:46;;;;;;;13.07;3.13;;;;;;;;;;4976625;28;20030;-77
2023/06/02 06:41:12;;;;;;;16.92;3.05;;;;;;;;;;4960638;28;20517;-78
2023/06/02 06:43:39;;;;;;;20.17;3.05;;;;;;;;;;4994193;28;20033;-78
2023/06/02 06:46:09;;;;;;;20.00;3.22;;;;;;;;;;4960796;28;20062;-78
2023/06/02 06:48:35;;;;;;;14.38;2.80;;;;;;;;;;4976641;28;20052;-79
2023/06/02 06:51:00;;;;;;;15.50;3.15;;;;;;;;;;4960776;28;20117;-77
2023/06/02 06:53:27;;;;;;;19.38;3.00;;;;;;;;;;4992851;28;20041;-77
2023/06/02 06:55:53;;;;;;;14.95;2.80;;;;;;;;;;4994490;28;20183;-77
2023/06/02 06:58:19;;;;;;;15.45;2.95;;;;;;;;;;4976745;28;20500;-77
2023/06/02 07:00:45;;;;;;;15.43;2.80;;;;;;;;;;4977323;28;20376;-78
2023/06/02 07:03:11;;;;;;;21.73;4.00;;;;;;;;;;4993781;28;20043;-79
2023/06/02 07:05:36;;;;;;;12.13;3.05;;;;;;;;;;4993604;28;20120;-78
2023/06/02 07:08:02;;;;;;;15.73;3.53;;;;;;;;;;4976240;28;20074;-77
2023/06/02 07:10:27;;;;;;;15.65;3.25;;;;;;;;;;4992899;28;20027;-78
2023/06/02 07:12:53;;;;;;;19.08;3.22;;;;;;;;;;4993944;28;20037;-78
2023/06/02 07:15:18;;;;;;;15.65;3.70;;;;;;;;;;4993208;28;20058;-79
2023/06/02 07:17:44;;;;;;;21.95;4.45;;;;;;;;;;4994788;28;20590;-78
2023/06/02 07:20:10;;;;;;;18.98;3.22;;;;;;;;;;4979389;28;20034;-79
2023/06/02 07:22:36;;;;;;;24.48;3.80;;;;;;;;;;4986975;28;20488;-80
2023/06/02 07:25:03;;;;;;;24.83;3.55;;;;;;;;;;5006505;28;20026;-78
2023/06/02 07:27:29;;;;;;;17.77;4.03;;;;;;;;;;4986570;28;20033;-76
2023/06/02 07:29:55;;;;;;;21.45;3.70;;;;;;;;;;5005094;28;20030;-78
2023/06/02 07:32:20;;;;;;;21.80;4.25;;;;;;;;;;4986578;28;20521;-79
2023/06/02 07:34:46;;;;;;;15.52;3.20;;;;;;;;;;4978957;28;20110;-77
2023/06/02 07:37:11;;;;;;;16.30;3.67;;;;;;;;;;4993993;28;20038;-77
2023/06/02 07:39:40;;;;;;;16.25;2.90;;;;;;;;;;4977052;28;20066;-78
2023/06/02 07:42:06;;;;;;;;;;;;;;;;;;4976612;28;20050;-78
2023/06/02 07:44:31;;;;;;;17.00;3.25;;;;;;;;;;4991895;28;19917;-78
2023/06/02 07:46:57;;;;;;;23.77;4.60;;;;;;;;;;4976169;28;20030;-77
2023/06/02 07:49:22;;;;;;;16.15;2.90;;;;;;;;;;4975886;28;20403;-77
2023/06/02 07:51:48;;;;;;;20.15;4.07;;;;;;;;;;4993407;28;20026;-78
2023/06/02 07:54:14;;;;;;;16.05;2.95;;;;;;;;;;4959639;28;20557;-79
2023/06/02 07:56:39;;;;;;;18.00;3.15;;;;;;;;;;4998296;28;20041;-79
2023/06/02 07:59:05;;;;;;;22.00;2.92;;;;;;;;;;4998354;28;20444;-78
2023/06/02 08:01:30;;;;;;;13.80;3.80;;;;;;;;;;4958114;28;20399;-77
2023/06/02 08:03:56;;;;;;;21.77;3.55;;;;;;;;;;4994026;28;20479;-76
2023/06/02 08:06:22;;;;;;;17.67;3.25;;;;;;;;;;4994301;28;20030;-78
2023/06/02 08:08:47;;;;;;;17.08;3.42;;;;;;;;;;4993982;28;20387;-79
2023/06/02 08:11:13;;;;;;;14.40;3.72;;;;;;;;;;4994271;28;20503;-78
2023/06/02 08:13:38;;;;;;;18.88;3.55;;;;;;;;;;4961860;28;20022;-79
2023/06/02 08:16:04;;;;;;;19.17;2.83;;;;;;;;;;4974864;28;20086;-80
2023/06/02 08:18:30;;;;;;;15.05;3.20;;;;;;;;;;4992046;28;20447;-81
2023/06/02 08:20:56;;;;;;;16.48;2.70;;;;;;;;;;4974500;28;20513;-80
2023/06/02 08:23:21;;;;;;;37.53;4.20;;;;;;;;;;4992179;28;20478;-80
2023/06/02 08:25:47;;;;;;;20.55;3.72;;;;;;;;;;4958711;28;20133;-81
2023/06/02 08:28:13;;;;;;;17.52;3.30;;;;;;;;;;4962577;28;20026;-81
2023/06/02 08:30:41;;;;;;;16.40;3.35;;;;;;;;;;4992568;28;20554;-81
2023/06/02 08:33:09;;;;;;;28.17;5.50;;;;;;;;;;4975210;28;20034;-79
2023/06/02 08:35:38;;;;;;;23.92;3.88;;;;;;;;;;4940847;28;20042;-81
2023/06/02 08:38:06;;;;;;;;;;;;;;;;;;4956199;28;20035;-81
2023/06/02 08:41:09;;;;;;;22.95;4.13;;;;;;;;;;4971499;28;19929;-80
2023/06/02 08:43:34;;;;;;;18.83;3.97;;;;;;;;;;4955327;28;20050;-81
2023/06/02 08:46:00;;;;;;;20.13;4.53;;;;;;;;;;4956052;28;20030;-80
2023/06/02 08:48:27;;;;;;;19.90;4.05;;;;;;;;;;4971554;28;20030;-81
2023/06/02 08:50:54;;;;;;;35.53;5.35;;;;;;;;;;4954807;28;20023;-80
2023/06/02 08:53:21;;;;;;;38.70;5.35;;;;;;;;;;4988495;28;20487;-81
2023/06/02 08:55:47;;;;;;;20.15;3.85;;;;;;;;;;4958869;28;20034;-80
2023/06/02 08:58:13;;;;;;;13.25;3.05;;;;;;;;;;4975281;28;20514;-80
2023/06/02 09:00:38;;;;;;;13.25;2.92;;;;;;;;;;4959102;28;20030;-81
2023/06/02 09:03:04;;;;;;;10.77;2.78;;;;;;;;;;4975118;28;20574;-83
2023/06/02 09:05:33;;;;;;;12.65;2.95;;;;;;;;;;4991747;28;20071;-83
2023/06/02 09:08:08;;;;;;;18.15;3.70;;;;;;;;;;4957716;28;20045;-82
2023/06/02 09:10:39;;;;;;;20.15;3.97;;;;;;;;;;4988953;28;20042;-82
2023/06/02 09:13:28;;;;;;;13.35;3.20;;;;;;;;;;4973786;28;20018;-79
2023/06/02 09:15:58;;;;;;;19.88;3.38;;;;;;;;;;4982818;28;20038;-79
2023/06/02 09:18:23;;;;;;;14.85;3.53;;;;;;;;;;4990595;28;20030;-79
2023/06/02 09:20:50;;;;;;;13.73;3.45;;;;;;;;;;4998360;28;20414;-79
2023/06/02 09:23:16;;;;;;;14.10;3.30;;;;;;;;;;4984223;28;20037;-79
2023/06/02 09:25:43;;;;;;;17.40;4.95;;;;;;;;;;4974125;28;20038;-80
2023/06/02 09:28:11;;;;;;;14.32;3.85;;;;;;;;;;5008178;28;20149;-80
2023/06/02 09:30:37;;;;;;;14.85;3.22;;;;;;;;;;4995600;28;20022;-79
2023/06/02 09:33:12;;;;;;;197.73;93.95;;;;;;;;;;4970787;28;20075;-86
2023/06/02 09:35:41;;;;;;;60.45;31.65;;;;;;;;;;4965923;28;20524;-83
2023/06/02 09:38:10;;;;;;;32.20;12.52;;;;;;;;;;4991804;28;20041;-82
2023/06/02 09:40:36;;;;;;;21.58;6.47;;;;;;;;;;4966300;28;20038;-82
2023/06/02 09:43:03;;;;;;;20.83;7.90;;;;;;;;;;4974394;28;20042;-88
2023/06/02 09:45:28;;;;;;;12.63;4.65;;;;;;;;;;4956591;28;20077;-83
2023/06/02 09:47:54;;;;;;;16.45;4.38;;;;;;;;;;4999082;28;20066;-82
2023/06/02 09:50:30;;;;;;;15.57;4.38;;;;;;;;;;4993214;28;20029;-82
2023/06/02 09:53:03;;;;;;;18.33;4.28;;;;;;;;;;4952720;28;20034;-83
2023/06/02 09:55:30;;;;;;;15.50;3.67;;;;;;;;;;4986091;28;20030;-83
2023/06/02 09:57:57;;;;;;;18.23;4.15;;;;;;;;;;4977147;28;20030;-82
2023/06/02 10:00:22;;;;;;;18.15;3.65;;;;;;;;;;4982249;28;20445;-82
2023/06/02 10:02:49;;;;;;;17.35;3.58;;;;;;;;;;4993128;28;20029;-82
2023/06/02 10:05:16;;;;;;;15.95;3.38;;;;;;;;;;4988987;28;20029;-83
2023/06/02 10:07:55;;;;;;;16.75;3.33;;;;;;;;;;4970277;28;20022;-85
2023/06/02 10:10:36;;;;;;;15.38;3.30;;;;;;;;;;4979384;28;20025;-84
2023/06/02 10:13:02;;;;;;;15.88;3.85;;;;;;;;;;5007117;28;20543;-83
2023/06/02 10:16:00;;;;;;;17.23;3.10;;;;;;;;;;5013246;28;20068;-84
2023/06/02 10:18:46;;;;;;;17.60;3.58;;;;;;;;;;4972669;28;20029;-83
2023/06/02 10:21:42;;;;;;;11.50;3.08;;;;;;;;;;4955165;28;20046;-84
2023/06/02 10:24:10;;;;;;;11.65;2.90;;;;;;;;;;4909265;28;20049;-83
2023/06/02 10:26:42;;;;;;;10.32;3.00;;;;;;;;;;4996500;28;20111;-82
2023/06/02 10:29:09;;;;;;;14.93;3.08;;;;;;;;;;4988007;28;20096;-84
2023/06/02 10:31:34;;;;;;;15.48;3.50;;;;;;;;;;4970747;28;20041;-84
2023/06/02 10:34:03;;;;;;;10.63;2.97;;;;;;;;;;4993391;28;20029;-82
2023/06/02 10:36:48;;;;;;;18.25;3.83;;;;;;;;;;4975132;28;20033;-83
2023/06/02 10:39:45;;;;;;;19.13;4.18;;;;;;;;;;5001225;28;20061;-83
2023/06/02 10:42:11;;;;;;;12.10;3.15;;;;;;;;;;5005659;28;20025;-84
2023/06/02 10:44:37;;;;;;;11.80;3.22;;;;;;;;;;4974883;28;20093;-82
2023/06/02 10:47:18;;;;;;;18.40;3.15;;;;;;;;;;5001741;28;20026;-80
2023/06/02 10:49:55;;;;;;;14.07;3.58;;;;;;;;;;4980696;28;20041;-81
2023/06/02 10:52:31;;;;;;;10.73;3.53;;;;;;;;;;4976825;28;20168;-86
2023/06/02 10:55:12;;;;;;;118.13;70.38;;;;;;;;;;4961743;28;20031;-84
2023/06/02 10:57:50;;;;;;;29.08;8.77;;;;;;;;;;4991148;28;20053;-85
2023/06/02 11:00:43;;;;;;;15.55;5.38;;;;;;;;;;4964182;28;20042;-85
2023/06/02 11:03:08;;;;;;;14.25;3.30;;;;;;;;;;4973108;28;20026;-86
2023/06/02 11:05:34;;;;;;;13.00;3.53;;;;;;;;;;4962835;28;20500;-86
2023/06/02 11:08:09;;;;;;;14.75;3.88;;;;;;;;;;4971877;28;20034;-86
2023/06/02 11:10:42;;;;;;;16.30;3.30;;;;;;;;;;4957116;28;20041;-84
2023/06/02 11:13:13;;;;;;;10.38;2.88;;;;;;;;;;4945973;28;20422;-85
2023/06/02 11:15:41;;;;;;;18.88;3.30;;;;;;;;;;4977135;28;20113;-84
2023/06/02 11:18:22;;;;;;;12.33;3.13;;;;;;;;;;4977669;28;20403;-85
2023/06/02 11:20:58;;;;;;;14.73;4.00;;;;;;;;;;4962215;28;20699;-85
2023/06/02 11:23:25;;;;;;;11.32;2.75;;;;;;;;;;4952914;28;20017;-86
2023/06/02 11:26:07;;;;;;;11.70;2.88;;;;;;;;;;4990019;28;20026;-87
2023/06/02 11:28:33;;;;;;;17.88;2.97;;;;;;;;;;4964340;28;20029;-85
2023/06/02 11:31:14;;;;;;;9.57;2.72;;;;;;;;;;4985210;28;20404;-84
2023/06/02 11:33:42;;;;;;;15.85;3.08;;;;;;;;;;4981994;28;20050;-85
2023/06/02 11:36:13;;;;;;;13.27;2.55;;;;;;;;;;4981622;28;20027;-85
2023/06/02 11:38:39;;;;;;;15.38;2.92;;;;;;;;;;4976721;28;20030;-84
2023/06/02 11:41:15;;;;;;;12.18;2.83;;;;;;;;;;4970199;28;20124;-85
2023/06/02 11:43:43;;;;;;;10.27;2.95;;;;;;;;;;4950584;28;20038;-87
2023/06/02 11:46:10;;;;;;;11.32;2.70;;;;;;;;;;5009659;28;20026;-84
2023/06/02 11:48:38;;;;;;;19.88;3.25;;;;;;;;;;4964287;28;20045;-84
2023/06/02 11:51:08;;;;;;;15.85;3.08;;;;;;;;;;4971240;28;20080;-85
2023/06/02 11:53:38;;;;;;;13.57;2.80;;;;;;;;;;4971531;28;20101;-85
2023/06/02 11:56:07;;;;;;;12.65;2.70;;;;;;;;;;4963617;28;20030;-84
2023/06/02 11:58:39;;;;;;;11.23;2.40;;;;;;;;;;4965288;28;20028;-84
2023/06/02 12:01:07;;;;;;;14.60;3.03;;;;;;;;;;4972455;28;20034;-85
2023/06/02 12:03:33;;;;;;;10.70;2.35;;;;;;;;;;4989731;28;20494;-85
2023/06/02 12:06:08;;;;;;;11.43;2.70;;;;;;;;;;4996336;28;20098;-85
2023/06/02 12:08:35;;;;;;;15.00;3.83;;;;;;;;;;4969988;28;20036;-84
2023/06/02 12:11:02;;;;;;;10.63;2.17;;;;;;;;;;4992940;28;20046;-84
2023/06/02 12:13:29;;;;;;;10.75;2.13;;;;;;;;;;4972194;28;20033;-84
2023/06/02 12:15:55;;;;;;;8.50;2.17;;;;;;;;;;4971326;28;20105;-84
2023/06/02 12:18:31;;;;;;;10.52;2.22;;;;;;;;;;4982431;28;20025;-83
2023/06/02 12:21:00;;;;;;;8.73;2.17;;;;;;;;;;4989236;28;20045;-84
2023/06/02 12:23:46;;;;;;;11.70;2.70;;;;;;;;;;5028243;22;20069;-82
2023/06/02 12:26:17;;;;;;;5.78;1.90;;;;;;;;;;5003405;28;20108;-80
2023/06/02 12:28:43;;;;;;;8.98;2.60;;;;;;;;;;4987844;28;20520;-80
2023/06/02 12:31:15;;;;;;;11.88;2.90;;;;;;;;;;4978526;28;20026;-80
2023/06/02 12:33:42;;;;;;;9.13;2.30;;;;;;;;;;4967158;28;20042;-81
2023/06/02 12:36:12;;;;;;;9.25;3.15;;;;;;;;;;4961032;28;20030;-80
2023/06/02 12:38:38;;;;;;;12.63;2.17;;;;;;;;;;4994136;28;20114;-80
2023/06/02 12:41:10;;;;;;;17.00;3.50;;;;;;;;;;4977934;28;20294;-80
2023/06/02 12:43:38;;;;;;;9.77;2.80;;;;;;;;;;4977235;28;20033;-81
2023/06/02 12:46:04;;;;;;;9.02;2.20;;;;;;;;;;4977546;28;20034;-81
2023/06/02 12:48:32;;;;;;;9.65;2.58;;;;;;;;;;4913672;28;20027;-79
2023/06/02 12:50:58;;;;;;;16.17;2.95;;;;;;;;;;4946506;28;20030;-80
2023/06/02 12:53:24;;;;;;;10.38;2.50;;;;;;;;;;4976326;28;20026;-80
2023/06/02 12:55:50;;;;;;;8.90;2.65;;;;;;;;;;4960764;28;20049;-81
2023/06/02 12:58:16;;;;;;;10.02;2.70;;;;;;;;;;4977454;28;20041;-80
2023/06/02 13:00:43;;;;;;;6.45;2.20;;;;;;;;;;4977506;28;20093;-80
2023/06/02 13:03:10;;;;;;;8.63;2.65;;;;;;;;;;4977645;28;20035;-80
2023/06/02 13:05:55;;;;;;;14.13;2.80;;;;;;;;;;4958675;28;20042;-83
2023/06/02 13:08:23;;;;;;;12.93;2.95;;;;;;;;;;5001403;28;20022;-82
2023/06/02 13:10:57;;;;;;;8.18;2.22;;;;;;;;;;4966778;28;20096;-80
2023/06/02 13:13:29;;;;;;;9.75;2.63;;;;;;;;;;4983232;28;20029;-81
2023/06/02 13:15:58;;;;;;;23.00;3.40;;;;;;;;;;4973050;28;20109;-80
2023/06/02 13:18:25;;;;;;;14.95;3.17;;;;;;;;;;4967091;28;20047;-79
2023/06/02 13:20:50;;;;;;;15.35;3.25;;;;;;;;;;4986545;28;20096;-80
2023/06/02 13:23:20;;;;;;;12.93;3.17;;;;;;;;;;4983507;28;20125;-80
2023/06/02 13:25:49;;;;;;;19.02;3.00;;;;;;;;;;4943176;28;20046;-80
2023/06/02 13:28:15;;;;;;;12.68;3.13;;;;;;;;;;4948385;28;20022;-81
2023/06/02 13:30:41;;;;;;;8.25;2.65;;;;;;;;;;4970311;28;20036;-81
2023/06/02 13:33:15;;;;;;;14.80;2.60;;;;;;;;;;4971362;28;20037;-83
2023/06/02 13:35:52;;;;;;;8.55;3.08;;;;;;;;;;4964617;28;20049;-82
2023/06/02 13:38:18;;;;;;;9.15;2.78;;;;;;;;;;4977940;28;20034;-81
2023/06/02 13:40:44;;;;;;;9.25;2.70;;;;;;;;;;4962211;28;20030;-82
2023/06/02 13:43:10;;;;;;;13.57;2.45;;;;;;;;;;4962780;28;20034;-80
2023/06/02 13:45:42;;;;;;;8.60;2.35;;;;;;;;;;4971114;28;20034;-81
2023/06/02 13:48:08;;;;;;;10.43;2.70;;;;;;;;;;4962048;28;20034;-82
2023/06/02 13:50:34;;;;;;;9.35;2.33;;;;;;;;;;4995248;28;20036;-82
2023/06/02 13:53:01;;;;;;;8.57;2.20;;;;;;;;;;4977921;28;20026;-81
2023/06/02 13:55:28;;;;;;;14.50;4.18;;;;;;;;;;4961193;28;20062;-82
2023/06/02 13:57:54;;;;;;;7.00;2.22;;;;;;;;;;4977449;28;20057;-80
2023/06/02 14:00:20;;;;;;;7.38;2.08;;;;;;;;;;4994984;28;20498;-81
2023/06/02 14:02:46;;;;;;;8.05;1.88;;;;;;;;;;4978070;28;20039;-81
2023/06/02 14:05:12;;;;;;;9.02;2.13;;;;;;;;;;4956685;28;20430;-81
2023/06/02 14:07:38;;;;;;;6.38;2.00;;;;;;;;;;4977572;28;20027;-83
2023/06/02 14:10:04;;;;;;;8.57;2.10;;;;;;;;;;4938395;28;20035;-83
2023/06/02 14:12:30;;;;;;;6.68;2.20;;;;;;;;;;4961960;28;20446;-79
2023/06/02 14:14:56;;;;;;;8.20;2.15;;;;;;;;;;4962297;28;20475;-80
2023/06/02 14:17:22;;;;;;;7.82;2.35;;;;;;;;;;4980449;28;20045;-81
2023/06/02 14:19:47;;;;;;;7.13;1.85;;;;;;;;;;4978628;28;20049;-81
2023/06/02 14:22:13;;;;;;;11.02;2.95;;;;;;;;;;4977553;28;20050;-81
2023/06/02 14:24:39;;;;;;;6.90;2.42;;;;;;;;;;4979609;28;20489;-82
2023/06/02 14:27:05;;;;;;;7.35;2.35;;;;;;;;;;4968003;28;20022;-82
2023/06/02 14:29:33;;;;;;;10.35;4.28;;;;;;;;;;4979375;28;20023;-81
2023/06/02 14:31:59;;;;;;;8.07;2.55;;;;;;;;;;4983805;28;20063;-81
2023/06/02 14:34:24;;;;;;;8.25;3.28;;;;;;;;;;4960571;29;20063;-82
2023/06/02 14:36:50;;;;;;;8.15;3.20;;;;;;;;;;4958733;28;20039;-81